Time,TemperatureF,DewpointF,PressureIn,WindDirection,WindDirectionDegrees,WindSpeedMPH,WindSpeedGustMPH,Humidity,HourlyPrecipIn,Conditions,Clouds,dailyrainin,SoftwareType,DateUTC
2013-10-04 00:04:00,74.6,73.1,29.95,ESE,102,2.0,3.0,95,0.00,,---,0.00,VWS V14.01,2013-10-04 05:04:00,
2013-10-04 00:09:00,74.7,73.2,29.95,ESE,102,0.0,0.0,95,0.00,,---,0.00,VWS V14.01,2013-10-04 05:09:00,
2013-10-04 00:14:00,74.7,72.9,29.95,ESE,102,0.0,0.0,94,0.00,,---,0.00,VWS V14.01,2013-10-04 05:14:00,
2013-10-04 00:19:00,74.7,73.2,29.95,ESE,102,0.0,1.0,95,0.00,,---,0.00,VWS V14.01,2013-10-04 05:19:00,
2013-10-04 00:29:00,74.9,73.1,29.95,ESE,102,0.0,1.0,94,0.00,,---,0.00,VWS V14.01,2013-10-04 05:29:00,
2013-10-04 00:34:00,74.9,73.1,29.95,NE,35,0.0,3.0,94,0.00,,---,0.00,VWS V14.01,2013-10-04 05:34:00,
2013-10-04 00:36:00,75.0,73.5,29.95,ESE,103,0.0,4.0,95,0.00,,---,0.00,VWS V14.01,2013-10-04 05:36:00,
2013-10-04 00:44:00,75.1,73.3,29.95,ESE,120,0.0,2.0,94,0.00,,---,0.00,VWS V14.01,2013-10-04 05:44:00,
2013-10-04 00:49:00,75.2,73.4,29.95,ENE,77,2.0,2.0,94,0.00,,---,0.00,VWS V14.01,2013-10-04 05:49:00,
2013-10-04 00:54:00,75.2,73.7,29.95,ESE,121,0.0,3.0,95,0.00,,---,0.00,VWS V14.01,2013-10-04 05:54:00,
2013-10-04 00:59:00,75.1,73.6,29.95,NNE,14,0.0,3.0,95,0.00,,---,0.00,VWS V14.01,2013-10-04 05:59:00,
2013-10-04 01:04:00,75.0,73.5,29.95,ENE,71,1.0,3.0,95,0.00,,---,0.00,VWS V14.01,2013-10-04 06:04:00,
2013-10-04 01:06:00,75.1,73.6,29.95,East,94,0.0,3.0,95,0.00,,---,0.00,VWS V14.01,2013-10-04 06:06:00,
2013-10-04 01:09:00,75.2,73.7,29.95,NNW,332,1.0,3.0,95,0.00,,---,0.00,VWS V14.01,2013-10-04 06:09:00,
2013-10-04 01:14:00,75.3,73.8,29.95,ENE,65,0.0,4.0,95,0.00,,---,0.00,VWS V14.01,2013-10-04 06:14:00,
2013-10-04 01:19:00,75.2,73.7,29.96,ENE,65,0.0,4.0,95,0.00,,---,0.00,VWS V14.01,2013-10-04 06:19:00,
2013-10-04 01:24:00,75.1,73.6,29.96,NE,42,0.0,4.0,95,0.00,,---,0.00,VWS V14.01,2013-10-04 06:24:00,
2013-10-04 01:29:00,75.1,73.6,29.95,NE,42,0.0,4.0,95,0.00,,---,0.00,VWS V14.01,2013-10-04 06:29:00,
2013-10-04 01:34:00,75.0,73.5,29.95,NE,42,0.0,4.0,95,0.00,,---,0.00,VWS V14.01,2013-10-04 06:34:00,
2013-10-04 01:36:00,75.0,73.5,29.95,NE,42,0.0,4.0,95,0.00,,---,0.00,VWS V14.01,2013-10-04 06:36:00,
2013-10-04 01:39:00,74.9,73.4,29.95,NE,42,0.0,1.0,95,0.00,,---,0.00,VWS V14.01,2013-10-04 06:39:00,
2013-10-04 01:44:00,74.7,73.2,29.95,NE,38,0.0,1.0,95,0.00,,---,0.00,VWS V14.01,2013-10-04 06:44:00,
2013-10-04 01:49:00,74.8,73.3,29.95,NE,38,0.0,2.0,95,0.00,,---,0.00,VWS V14.01,2013-10-04 06:49:00,
2013-10-04 01:54:00,74.7,73.2,29.95,NE,38,0.0,2.0,95,0.00,,---,0.00,VWS V14.01,2013-10-04 06:54:00,
2013-10-04 02:00:00,74.6,73.1,29.95,NE,38,0.0,2.0,95,0.00,,---,0.00,VWS V14.01,2013-10-04 07:00:00,
2013-10-04 02:05:00,74.4,72.9,29.95,NE,38,0.0,2.0,95,0.00,,---,0.00,VWS V14.01,2013-10-04 07:05:00,
2013-10-04 02:06:00,74.3,72.8,29.95,NE,38,0.0,2.0,95,0.00,,---,0.00,VWS V14.01,2013-10-04 07:06:00,
2013-10-04 02:10:00,74.3,73.1,29.95,NE,38,0.0,0.0,96,0.00,,---,0.00,VWS V14.01,2013-10-04 07:10:00,
2013-10-04 02:15:00,74.1,72.6,29.95,NE,38,0.0,0.0,95,0.00,,---,0.00,VWS V14.01,2013-10-04 07:15:00,
2013-10-04 02:20:00,73.9,72.7,29.95,NE,38,0.0,0.0,96,0.00,,---,0.00,VWS V14.01,2013-10-04 07:20:00,
2013-10-04 02:25:00,73.9,72.7,29.95,NE,38,0.0,0.0,96,0.00,,---,0.00,VWS V14.01,2013-10-04 07:25:00,
2013-10-04 02:30:00,73.6,72.4,29.95,NE,38,0.0,0.0,96,0.00,,---,0.00,VWS V14.01,2013-10-04 07:30:00,
2013-10-04 02:35:00,73.6,72.4,29.94,NE,38,0.0,0.0,96,0.00,,---,0.00,VWS V14.01,2013-10-04 07:35:00,
2013-10-04 02:36:00,73.5,72.3,29.94,NE,38,0.0,0.0,96,0.00,,---,0.00,VWS V14.01,2013-10-04 07:36:00,
2013-10-04 02:40:00,73.6,72.4,29.94,NE,38,0.0,0.0,96,0.00,,---,0.00,VWS V14.01,2013-10-04 07:40:00,
2013-10-04 02:45:00,73.7,72.5,29.94,NE,38,0.0,0.0,96,0.00,,---,0.00,VWS V14.01,2013-10-04 07:45:00,
2013-10-04 02:50:00,73.8,72.6,29.94,NE,38,0.0,1.0,96,0.00,,---,0.00,VWS V14.01,2013-10-04 07:50:00,
2013-10-04 02:55:00,74.1,72.9,29.94,East,101,1.0,2.0,96,0.00,,---,0.00,VWS V14.01,2013-10-04 07:55:00,
2013-10-04 03:00:00,74.3,73.4,29.94,East,90,0.0,3.0,97,0.00,,---,0.00,VWS V14.01,2013-10-04 08:00:00,
2013-10-04 03:05:00,74.4,73.5,29.94,East,90,0.0,3.0,97,0.00,,---,0.00,VWS V14.01,2013-10-04 08:05:00,
2013-10-04 03:06:00,74.5,73.6,29.94,East,90,0.0,3.0,97,0.00,,---,0.00,VWS V14.01,2013-10-04 08:06:00,
2013-10-04 03:10:00,74.6,73.4,29.94,East,90,0.0,1.0,96,0.00,,---,0.00,VWS V14.01,2013-10-04 08:10:00,
2013-10-04 03:15:00,74.7,73.5,29.94,East,90,0.0,1.0,96,0.00,,---,0.00,VWS V14.01,2013-10-04 08:15:00,
2013-10-04 03:20:00,74.7,73.5,29.94,South,185,0.0,2.0,96,0.00,,---,0.00,VWS V14.01,2013-10-04 08:20:00,
2013-10-04 03:25:00,74.8,73.6,29.94,South,169,0.0,2.0,96,0.00,,---,0.00,VWS V14.01,2013-10-04 08:25:00,
2013-10-04 03:30:00,74.8,73.6,29.94,South,169,0.0,2.0,96,0.00,,---,0.00,VWS V14.01,2013-10-04 08:30:00,
2013-10-04 03:35:00,74.8,73.6,29.94,South,169,0.0,2.0,96,0.00,,---,0.00,VWS V14.01,2013-10-04 08:35:00,
2013-10-04 03:40:00,74.9,73.7,29.93,ENE,78,1.0,1.0,96,0.00,,---,0.00,VWS V14.01,2013-10-04 08:40:00,
2013-10-04 03:45:00,74.9,73.7,29.93,NE,41,0.0,3.0,96,0.00,,---,0.00,VWS V14.01,2013-10-04 08:45:00,
2013-10-04 03:50:00,74.9,73.7,29.93,West,275,1.0,3.0,96,0.00,,---,0.00,VWS V14.01,2013-10-04 08:50:00,
2013-10-04 03:55:00,74.9,73.7,29.93,ENE,77,0.0,3.0,96,0.00,,---,0.00,VWS V14.01,2013-10-04 08:55:00,
2013-10-04 04:00:00,75.0,73.8,29.93,ENE,76,0.0,3.0,96,0.00,,---,0.00,VWS V14.01,2013-10-04 09:00:00,
2013-10-04 04:05:00,75.0,73.8,29.93,SSW,192,0.0,8.0,96,0.00,,---,0.00,VWS V14.01,2013-10-04 09:05:00,
2013-10-04 04:10:00,75.0,73.8,29.93,NE,55,2.0,5.0,96,0.00,,---,0.00,VWS V14.01,2013-10-04 09:10:00,
2013-10-04 04:15:00,75.0,73.8,29.93,NNW,344,0.0,5.0,96,0.00,,---,0.00,VWS V14.01,2013-10-04 09:15:00,
2013-10-04 04:20:00,75.1,73.6,29.93,WSW,257,0.0,5.0,95,0.00,,---,0.00,VWS V14.01,2013-10-04 09:20:00,
2013-10-04 04:25:00,75.1,73.6,29.93,East,99,0.0,5.0,95,0.00,,---,0.00,VWS V14.01,2013-10-04 09:25:00,
2013-10-04 04:30:00,75.1,73.6,29.93,North,350,0.0,5.0,95,0.00,,---,0.00,VWS V14.01,2013-10-04 09:30:00,
2013-10-04 04:35:00,75.1,73.6,29.93,ENE,67,1.0,5.0,95,0.00,,---,0.00,VWS V14.01,2013-10-04 09:35:00,
2013-10-04 04:36:00,75.1,73.6,29.93,ENE,67,0.0,5.0,95,0.00,,---,0.00,VWS V14.01,2013-10-04 09:36:00,
2013-10-04 04:45:00,75.2,73.7,29.93,ESE,107,0.0,2.0,95,0.00,,---,0.00,VWS V14.01,2013-10-04 09:45:00,
2013-10-04 04:50:00,75.1,73.6,29.93,ESE,104,1.0,2.0,95,0.00,,---,0.00,VWS V14.01,2013-10-04 09:50:00,
2013-10-04 04:55:00,75.1,73.6,29.93,SE,142,0.0,2.0,95,0.00,,---,0.00,VWS V14.01,2013-10-04 09:55:00,
2013-10-04 05:00:00,75.1,73.6,29.93,SE,142,0.0,2.0,95,0.00,,---,0.00,VWS V14.01,2013-10-04 10:00:00,
2013-10-04 05:05:00,75.1,73.6,29.93,SE,142,0.0,2.0,95,0.00,,---,0.00,VWS V14.01,2013-10-04 10:05:00,
2013-10-04 05:06:00,75.1,73.6,29.93,SE,142,0.0,2.0,95,0.00,,---,0.00,VWS V14.01,2013-10-04 10:06:00,
2013-10-04 05:10:00,75.1,73.6,29.93,SE,142,0.0,0.0,95,0.00,,---,0.00,VWS V14.01,2013-10-04 10:10:00,
2013-10-04 05:15:00,75.2,73.7,29.93,SE,142,0.0,0.0,95,0.00,,---,0.00,VWS V14.01,2013-10-04 10:15:00,
2013-10-04 05:20:00,75.1,73.6,29.93,SE,142,0.0,0.0,95,0.00,,---,0.00,VWS V14.01,2013-10-04 10:20:00,
2013-10-04 05:25:00,75.1,73.6,29.93,WSW,248,0.0,2.0,95,0.00,,---,0.00,VWS V14.01,2013-10-04 10:25:00,
2013-10-04 05:30:00,75.1,73.6,29.93,WSW,248,0.0,2.0,95,0.00,,---,0.00,VWS V14.01,2013-10-04 10:30:00,
2013-10-04 05:35:00,75.1,73.6,29.93,WSW,248,0.0,2.0,95,0.00,,---,0.00,VWS V14.01,2013-10-04 10:35:00,
2013-10-04 05:36:00,75.1,73.6,29.93,WSW,248,0.0,2.0,95,0.00,,---,0.00,VWS V14.01,2013-10-04 10:36:00,
2013-10-04 05:40:00,75.1,73.6,29.94,WSW,248,0.0,1.0,95,0.00,,---,0.00,VWS V14.01,2013-10-04 10:40:00,
2013-10-04 05:45:00,75.1,73.6,29.94,WSW,248,0.0,1.0,95,0.00,,---,0.00,VWS V14.01,2013-10-04 10:45:00,
2013-10-04 05:50:00,75.1,73.6,29.94,WSW,248,0.0,1.0,95,0.00,,---,0.00,VWS V14.01,2013-10-04 10:50:00,
2013-10-04 05:55:00,75.1,73.6,29.94,WSW,248,0.0,1.0,95,0.00,,---,0.00,VWS V14.01,2013-10-04 10:55:00,
2013-10-04 06:00:00,75.1,73.6,29.94,WSW,248,0.0,1.0,95,0.00,,---,0.00,VWS V14.01,2013-10-04 11:00:00,
2013-10-04 06:05:00,75.1,73.6,29.94,WSW,248,0.0,1.0,95,0.00,,---,0.00,VWS V14.01,2013-10-04 11:05:00,
2013-10-04 06:06:00,75.1,73.6,29.94,WSW,248,0.0,1.0,95,0.00,,---,0.00,VWS V14.01,2013-10-04 11:06:00,
2013-10-04 06:10:00,75.0,73.5,29.94,WSW,248,0.0,0.0,95,0.00,,---,0.00,VWS V14.01,2013-10-04 11:10:00,
2013-10-04 06:15:00,74.9,73.4,29.94,WSW,248,0.0,2.0,95,0.00,,---,0.00,VWS V14.01,2013-10-04 11:15:00,
2013-10-04 06:20:00,74.8,73.3,29.94,WSW,248,0.0,2.0,95,0.00,,---,0.00,VWS V14.01,2013-10-04 11:20:00,
2013-10-04 06:25:00,74.6,73.1,29.94,WSW,248,0.0,2.0,95,0.00,,---,0.00,VWS V14.01,2013-10-04 11:25:00,
2013-10-04 06:30:00,74.5,73.0,29.94,WSW,248,0.0,2.0,95,0.00,,---,0.00,VWS V14.01,2013-10-04 11:30:00,
2013-10-04 06:35:00,74.4,72.9,29.94,WSW,248,0.0,2.0,95,0.00,,---,0.00,VWS V14.01,2013-10-04 11:35:00,
2013-10-04 06:36:00,74.4,73.2,29.94,WSW,248,0.0,2.0,96,0.00,,---,0.00,VWS V14.01,2013-10-04 11:36:00,
2013-10-04 06:40:00,74.2,73.0,29.95,WSW,248,0.0,0.0,96,0.00,,---,0.00,VWS V14.01,2013-10-04 11:40:00,
2013-10-04 06:45:00,74.2,73.0,29.95,WSW,248,0.0,0.0,96,0.00,,---,0.00,VWS V14.01,2013-10-04 11:45:00,
2013-10-04 06:50:00,74.1,72.9,29.95,WSW,248,0.0,0.0,96,0.00,,---,0.00,VWS V14.01,2013-10-04 11:50:00,
2013-10-04 06:55:00,74.2,73.0,29.95,WSW,248,0.0,0.0,96,0.00,,---,0.00,VWS V14.01,2013-10-04 11:55:00,
2013-10-04 07:00:00,74.2,73.0,29.95,WSW,248,0.0,0.0,96,0.00,,---,0.00,VWS V14.01,2013-10-04 12:00:00,
2013-10-04 07:05:00,74.3,73.1,29.95,WSW,248,0.0,0.0,96,0.00,,---,0.00,VWS V14.01,2013-10-04 12:05:00,
2013-10-04 07:06:00,74.3,73.1,29.95,WSW,248,0.0,0.0,96,0.00,,---,0.00,VWS V14.01,2013-10-04 12:06:00,
2013-10-04 07:15:00,74.3,73.1,29.96,WSW,248,0.0,0.0,96,0.00,,---,0.00,VWS V14.01,2013-10-04 12:15:00,
2013-10-04 07:20:00,74.4,73.2,29.96,WSW,248,0.0,0.0,96,0.00,,---,0.00,VWS V14.01,2013-10-04 12:20:00,
2013-10-04 07:25:00,74.5,73.3,29.96,WSW,248,0.0,0.0,96,0.00,,---,0.00,VWS V14.01,2013-10-04 12:25:00,
2013-10-04 07:30:00,74.7,73.5,29.96,WSW,248,0.0,1.0,96,0.00,,---,0.00,VWS V14.01,2013-10-04 12:30:00,
2013-10-04 07:35:00,74.7,73.5,29.96,WSW,248,0.0,1.0,96,0.00,,---,0.00,VWS V14.01,2013-10-04 12:35:00,
2013-10-04 07:36:00,74.7,73.5,29.96,WSW,248,0.0,1.0,96,0.00,,---,0.00,VWS V14.01,2013-10-04 12:36:00,
2013-10-04 07:40:00,74.9,73.7,29.96,WSW,248,0.0,0.0,96,0.00,,---,0.00,VWS V14.01,2013-10-04 12:40:00,
2013-10-04 07:46:00,75.0,73.8,29.97,WSW,248,0.0,0.0,96,0.00,,---,0.00,VWS V14.01,2013-10-04 12:46:00,
2013-10-04 07:51:00,75.1,73.9,29.97,WSW,248,0.0,0.0,96,0.00,,---,0.00,VWS V14.01,2013-10-04 12:51:00,
2013-10-04 07:56:00,75.2,74.0,29.97,WSW,248,0.0,0.0,96,0.00,,---,0.00,VWS V14.01,2013-10-04 12:56:00,
2013-10-04 08:01:00,75.4,74.2,29.97,WSW,248,0.0,0.0,96,0.00,,---,0.00,VWS V14.01,2013-10-04 13:01:00,
2013-10-04 08:06:00,75.5,74.3,29.97,WSW,248,0.0,0.0,96,0.00,,---,0.00,VWS V14.01,2013-10-04 13:06:00,
2013-10-04 08:16:00,75.9,74.7,29.97,ESE,117,0.0,1.0,96,0.00,,---,0.00,VWS V14.01,2013-10-04 13:16:00,
2013-10-04 08:21:00,75.9,74.4,29.97,ESE,117,0.0,1.0,95,0.00,,---,0.00,VWS V14.01,2013-10-04 13:21:00,
2013-10-04 08:26:00,76.0,74.5,29.98,ESE,117,0.0,1.0,95,0.00,,---,0.00,VWS V14.01,2013-10-04 13:26:00,
2013-10-04 08:31:00,76.1,74.6,29.98,ESE,117,0.0,1.0,95,0.00,,---,0.00,VWS V14.01,2013-10-04 13:31:00,
2013-10-04 08:36:00,76.2,74.7,29.98,ESE,117,0.0,1.0,95,0.00,,---,0.00,VWS V14.01,2013-10-04 13:36:00,
2013-10-04 08:46:00,76.5,75.0,29.98,North,350,0.0,2.0,95,0.00,,---,0.00,VWS V14.01,2013-10-04 13:46:00,
2013-10-04 08:51:00,76.4,74.9,29.98,NNW,333,0.0,2.0,95,0.00,,---,0.00,VWS V14.01,2013-10-04 13:51:00,
2013-10-04 08:56:00,76.6,75.1,29.98,NNW,333,0.0,2.0,95,0.00,,---,0.00,VWS V14.01,2013-10-04 13:56:00,
2013-10-04 09:01:00,76.8,75.3,29.98,NNW,333,0.0,2.0,95,0.00,,---,0.00,VWS V14.01,2013-10-04 14:01:00,
2013-10-04 09:06:00,76.9,75.1,29.99,NNW,348,1.0,2.0,94,0.00,,---,0.00,VWS V14.01,2013-10-04 14:06:00,
2013-10-04 09:11:00,77.1,75.2,29.99,ESE,113,1.0,4.0,94,0.00,,---,0.00,VWS V14.01,2013-10-04 14:11:00,
2013-10-04 09:16:00,77.3,75.4,29.99,NE,40,0.0,4.0,94,0.00,,---,0.00,VWS V14.01,2013-10-04 14:16:00,
2013-10-04 09:21:00,77.5,75.6,29.99,NE,41,0.0,4.0,94,0.00,,---,0.00,VWS V14.01,2013-10-04 14:21:00,
2013-10-04 09:26:00,77.6,75.4,29.99,NE,41,0.0,4.0,93,0.00,,---,0.00,VWS V14.01,2013-10-04 14:26:00,
2013-10-04 09:31:00,77.8,75.9,29.99,NE,40,0.0,4.0,94,0.00,,---,0.00,VWS V14.01,2013-10-04 14:31:00,
2013-10-04 09:36:00,78.0,75.8,29.99,NE,41,0.0,4.0,93,0.00,,---,0.00,VWS V14.01,2013-10-04 14:36:00,
2013-10-04 09:46:00,77.9,75.4,29.99,East,98,1.0,3.0,92,0.00,,---,0.00,VWS V14.01,2013-10-04 14:46:00,
2013-10-04 09:51:00,77.9,75.4,29.99,East,98,1.0,3.0,92,0.00,,---,0.00,VWS V14.01,2013-10-04 14:51:00,
2013-10-04 09:56:00,78.0,75.5,29.99,East,101,1.0,3.0,92,0.00,,---,0.00,VWS V14.01,2013-10-04 14:56:00,
2013-10-04 10:01:00,78.7,76.5,29.99,East,99,0.0,3.0,93,0.00,,---,0.00,VWS V14.01,2013-10-04 15:01:00,
2013-10-04 10:06:00,79.1,76.2,29.99,East,100,1.0,3.0,91,0.00,,---,0.00,VWS V14.01,2013-10-04 15:06:00,
2013-10-04 10:11:00,78.9,76.1,29.99,ESE,102,0.0,2.0,91,0.00,,---,0.00,VWS V14.01,2013-10-04 15:11:00,
2013-10-04 10:16:00,78.8,76.3,29.99,SE,124,0.0,2.0,92,0.00,,---,0.00,VWS V14.01,2013-10-04 15:16:00,
2013-10-04 10:21:00,79.0,76.5,29.99,ENE,78,1.0,2.0,92,0.00,,---,0.00,VWS V14.01,2013-10-04 15:21:00,
2013-10-04 10:26:00,78.8,76.3,29.99,ENE,57,1.0,2.0,92,0.00,,---,0.00,VWS V14.01,2013-10-04 15:26:00,
2013-10-04 10:31:00,78.8,76.3,30.00,ENE,58,1.0,2.0,92,0.00,,---,0.00,VWS V14.01,2013-10-04 15:31:00,
2013-10-04 10:36:00,79.2,76.7,29.99,ENE,57,0.0,2.0,92,0.00,,---,0.00,VWS V14.01,2013-10-04 15:36:00,
2013-10-04 10:41:00,79.4,76.6,29.99,East,99,2.0,2.0,91,0.00,,---,0.00,VWS V14.01,2013-10-04 15:41:00,
2013-10-04 10:46:00,79.4,76.6,29.99,ESE,106,1.0,2.0,91,0.00,,---,0.00,VWS V14.01,2013-10-04 15:46:00,
2013-10-04 10:51:00,79.4,76.6,29.99,East,88,0.0,2.0,91,0.00,,---,0.00,VWS V14.01,2013-10-04 15:51:00,
2013-10-04 10:56:00,79.7,76.8,29.99,East,90,0.0,2.0,91,0.00,,---,0.00,VWS V14.01,2013-10-04 15:56:00,
2013-10-04 11:01:00,79.8,76.6,29.99,NNE,28,1.0,3.0,90,0.00,,---,0.00,VWS V14.01,2013-10-04 16:01:00,
2013-10-04 11:06:00,80.6,77.7,29.99,East,86,2.0,4.0,91,0.00,,---,0.00,VWS V14.01,2013-10-04 16:06:00,
2013-10-04 11:11:00,81.1,77.6,29.99,NNE,31,0.0,2.0,89,0.00,,---,0.00,VWS V14.01,2013-10-04 16:11:00,
2013-10-04 11:16:00,81.4,77.8,29.99,ENE,59,1.0,2.0,89,0.00,,---,0.00,VWS V14.01,2013-10-04 16:16:00,
2013-10-04 11:21:00,81.4,77.5,29.98,NE,34,1.0,3.0,88,0.00,,---,0.00,VWS V14.01,2013-10-04 16:21:00,
2013-10-04 11:26:00,81.7,77.5,29.98,SE,127,2.0,3.0,87,0.00,,---,0.00,VWS V14.01,2013-10-04 16:26:00,
2013-10-04 11:31:00,82.8,78.2,29.98,ESE,108,1.0,3.0,86,0.00,,---,0.00,VWS V14.01,2013-10-04 16:31:00,
2013-10-04 11:36:00,83.4,78.1,29.98,SE,133,0.0,8.0,84,0.00,,---,0.00,VWS V14.01,2013-10-04 16:36:00,
2013-10-04 11:41:00,83.2,77.9,29.98,East,96,5.0,5.0,84,0.00,,---,0.00,VWS V14.01,2013-10-04 16:41:00,
2013-10-04 11:46:00,83.6,77.9,29.98,East,95,1.0,7.0,83,0.00,,---,0.00,VWS V14.01,2013-10-04 16:46:00,
2013-10-04 11:51:00,84.8,79.1,29.98,SSE,166,1.0,9.0,83,0.00,,---,0.00,VWS V14.01,2013-10-04 16:51:00,
2013-10-04 11:56:00,84.8,79.1,29.98,West,267,0.0,9.0,83,0.00,,---,0.00,VWS V14.01,2013-10-04 16:56:00,
2013-10-04 12:01:00,85.5,79.0,29.98,WNW,286,0.0,9.0,81,0.00,,---,0.00,VWS V14.01,2013-10-04 17:01:00,
2013-10-04 12:06:00,84.6,77.8,29.98,WNW,285,2.0,2.0,80,0.00,,---,0.00,VWS V14.01,2013-10-04 17:06:00,
2013-10-04 12:15:00,85.5,78.6,29.98,East,89,0.0,4.0,80,0.00,,---,0.00,VWS V14.01,2013-10-04 17:15:00,
2013-10-04 12:20:00,85.8,78.5,29.97,NE,40,1.0,6.0,79,0.00,,---,0.00,VWS V14.01,2013-10-04 17:20:00,
2013-10-04 12:25:00,85.2,77.9,29.97,NE,40,6.0,6.0,79,0.00,,---,0.00,VWS V14.01,2013-10-04 17:25:00,
2013-10-04 12:30:00,84.5,76.5,29.97,South,177,1.0,6.0,77,0.00,,---,0.00,VWS V14.01,2013-10-04 17:30:00,
2013-10-04 12:35:00,83.9,77.1,29.97,East,97,1.0,6.0,80,0.00,,---,0.00,VWS V14.01,2013-10-04 17:35:00,
2013-10-04 12:36:00,84.0,77.5,29.97,NNW,341,1.0,6.0,81,0.00,,---,0.00,VWS V14.01,2013-10-04 17:36:00,
2013-10-04 13:00:00,84.9,77.7,29.97,ESE,106,1.0,5.0,79,0.00,,---,0.00,VWS V14.01,2013-10-04 18:00:00,
2013-10-04 13:05:00,86.0,77.9,29.96,ENE,74,3.0,5.0,77,0.00,,---,0.00,VWS V14.01,2013-10-04 18:05:00,
2013-10-04 13:06:00,86.0,77.6,29.96,NNE,30,1.0,5.0,76,0.00,,---,0.00,VWS V14.01,2013-10-04 18:06:00,
2013-10-04 13:10:00,86.8,78.7,29.96,NW,319,1.0,4.0,77,0.00,,---,0.00,VWS V14.01,2013-10-04 18:10:00,
2013-10-04 13:15:00,87.0,78.1,29.96,SE,134,2.0,4.0,75,0.00,,---,0.00,VWS V14.01,2013-10-04 18:15:00,
2013-10-04 13:20:00,87.0,77.7,29.96,SSW,200,0.0,6.0,74,0.00,,---,0.00,VWS V14.01,2013-10-04 18:20:00,
2013-10-04 13:25:00,87.2,77.9,29.95,SE,126,2.0,6.0,74,0.00,,---,0.00,VWS V14.01,2013-10-04 18:25:00,
2013-10-04 13:30:00,86.7,77.8,29.95,West,281,2.0,6.0,75,0.00,,---,0.00,VWS V14.01,2013-10-04 18:30:00,
2013-10-04 13:35:00,86.1,77.7,29.95,SE,140,1.0,6.0,76,0.00,,---,0.00,VWS V14.01,2013-10-04 18:35:00,
2013-10-04 13:36:00,86.1,77.2,29.95,South,184,1.0,6.0,75,0.00,,---,0.00,VWS V14.01,2013-10-04 18:36:00,
2013-10-04 13:40:00,86.7,77.0,29.94,ESE,119,3.0,4.0,73,0.00,,---,0.00,VWS V14.01,2013-10-04 18:40:00,
2013-10-04 13:45:00,86.5,76.4,29.94,NE,46,6.0,6.0,72,0.00,,---,0.00,VWS V14.01,2013-10-04 18:45:00,
2013-10-04 13:50:00,87.2,77.9,29.94,SW,235,1.0,7.0,74,0.00,,---,0.00,VWS V14.01,2013-10-04 18:50:00,
2013-10-04 13:55:00,87.6,76.6,29.94,ESE,105,2.0,7.0,70,0.00,,---,0.00,VWS V14.01,2013-10-04 18:55:00,
2013-10-04 14:00:00,87.7,76.7,29.93,East,92,2.0,7.0,70,0.00,,---,0.00,VWS V14.01,2013-10-04 19:00:00,
2013-10-04 14:05:00,88.1,77.1,29.93,East,93,5.0,7.0,70,0.00,,---,0.00,VWS V14.01,2013-10-04 19:05:00,
2013-10-04 14:06:00,88.0,76.1,29.93,ESE,107,2.0,7.0,68,0.00,,---,0.00,VWS V14.01,2013-10-04 19:06:00,
2013-10-04 14:10:00,87.0,76.0,29.93,ESE,111,0.0,7.0,70,0.00,,---,0.00,VWS V14.01,2013-10-04 19:10:00,
2013-10-04 14:15:00,86.6,75.7,29.93,NE,51,1.0,7.0,70,0.00,,---,0.00,VWS V14.01,2013-10-04 19:15:00,
2013-10-04 14:20:00,86.9,76.4,29.92,East,98,0.0,7.0,71,0.00,,---,0.00,VWS V14.01,2013-10-04 19:20:00,
2013-10-04 14:25:00,87.5,76.1,29.92,South,184,3.0,7.0,69,0.00,,---,0.00,VWS V14.01,2013-10-04 19:25:00,
2013-10-04 14:31:00,87.6,75.7,29.93,East,101,1.0,7.0,68,0.00,,---,0.00,VWS V14.01,2013-10-04 19:31:00,
2013-10-04 14:36:00,87.4,76.4,29.93,East,94,1.0,7.0,70,0.00,,---,0.00,VWS V14.01,2013-10-04 19:36:00,
2013-10-04 14:41:00,88.2,76.8,29.93,NNW,336,1.0,8.0,69,0.00,,---,0.00,VWS V14.01,2013-10-04 19:41:00,
2013-10-04 14:46:00,88.1,77.5,29.93,NE,40,2.0,8.0,71,0.00,,---,0.00,VWS V14.01,2013-10-04 19:46:00,
2013-10-04 14:51:00,88.3,77.3,29.93,NNE,32,2.0,8.0,70,0.00,,---,0.00,VWS V14.01,2013-10-04 19:51:00,
2013-10-04 14:56:00,88.3,76.4,29.93,NW,317,3.0,8.0,68,0.00,,---,0.00,VWS V14.01,2013-10-04 19:56:00,
2013-10-04 15:01:00,87.7,75.8,29.93,NNW,328,2.0,8.0,68,0.00,,---,0.00,VWS V14.01,2013-10-04 20:01:00,
2013-10-04 15:06:00,87.4,76.0,29.92,WNW,300,1.0,8.0,69,0.00,,---,0.00,VWS V14.01,2013-10-04 20:06:00,
2013-10-04 15:11:00,86.4,76.7,29.92,West,264,0.0,3.0,73,0.00,,---,0.00,VWS V14.01,2013-10-04 20:11:00,
2013-10-04 15:16:00,86.9,76.8,29.92,ESE,119,0.0,3.0,72,0.00,,---,0.00,VWS V14.01,2013-10-04 20:16:00,
2013-10-04 15:21:00,87.6,77.0,29.92,ESE,102,1.0,3.0,71,0.00,,---,0.00,VWS V14.01,2013-10-04 20:21:00,
2013-10-04 15:26:00,86.8,76.3,29.92,ESE,119,1.0,3.0,71,0.00,,---,0.00,VWS V14.01,2013-10-04 20:26:00,
2013-10-04 15:31:00,86.7,77.4,29.92,ESE,117,1.0,3.0,74,0.00,,---,0.00,VWS V14.01,2013-10-04 20:31:00,
2013-10-04 15:36:00,86.3,76.2,29.92,SW,236,2.0,5.0,72,0.00,,---,0.00,VWS V14.01,2013-10-04 20:36:00,
2013-10-04 15:41:00,86.1,76.0,29.92,NW,304,0.0,4.0,72,0.00,,---,0.00,VWS V14.01,2013-10-04 20:41:00,
2013-10-04 15:46:00,85.1,77.1,29.92,East,95,0.0,4.0,77,0.00,,---,0.00,VWS V14.01,2013-10-04 20:46:00,
2013-10-04 15:51:00,84.9,76.1,29.92,East,95,0.0,4.0,75,0.00,,---,0.00,VWS V14.01,2013-10-04 20:51:00,
2013-10-04 15:56:00,84.6,76.2,29.92,SSE,149,0.0,4.0,76,0.00,,---,0.00,VWS V14.01,2013-10-04 20:56:00,
2013-10-04 16:01:00,84.3,76.3,29.92,SSE,149,1.0,4.0,77,0.00,,---,0.00,VWS V14.01,2013-10-04 21:01:00,
2013-10-04 16:06:00,84.6,76.6,29.93,NE,51,2.0,4.0,77,0.00,,---,0.00,VWS V14.01,2013-10-04 21:06:00,
2013-10-04 16:11:00,84.3,76.7,29.93,NE,50,0.0,1.0,78,0.00,,---,0.00,VWS V14.01,2013-10-04 21:11:00,
2013-10-04 16:16:00,84.1,76.5,29.93,NE,50,0.0,1.0,78,0.00,,---,0.00,VWS V14.01,2013-10-04 21:16:00,
2013-10-04 16:21:00,83.7,76.5,29.93,ESE,115,0.0,3.0,79,0.00,,---,0.00,VWS V14.01,2013-10-04 21:21:00,
2013-10-04 16:26:00,82.9,76.5,29.93,South,188,3.0,11.0,81,0.00,,---,0.00,VWS V14.01,2013-10-04 21:26:00,
2013-10-04 16:31:00,80.3,75.4,29.94,NW,305,1.0,11.0,85,0.03,,---,0.03,VWS V14.01,2013-10-04 21:31:00,
2013-10-04 16:36:00,78.5,75.3,29.94,WNW,292,0.0,11.0,90,0.07,,---,0.07,VWS V14.01,2013-10-04 21:36:00,
2013-10-04 16:41:00,77.5,75.0,29.94,NNE,22,2.0,4.0,92,0.09,,---,0.09,VWS V14.01,2013-10-04 21:41:00,
2013-10-04 16:46:00,77.1,74.9,29.93,North,5,0.0,4.0,93,0.10,,---,0.10,VWS V14.01,2013-10-04 21:46:00,
2013-10-04 16:51:00,77.0,74.8,29.93,North,5,0.0,4.0,93,0.10,,---,0.10,VWS V14.01,2013-10-04 21:51:00,
2013-10-04 16:56:00,77.1,75.2,29.93,North,5,0.0,4.0,94,0.10,,---,0.10,VWS V14.01,2013-10-04 21:56:00,
2013-10-04 17:01:00,77.1,75.2,29.93,North,5,0.0,4.0,94,0.10,,---,0.10,VWS V14.01,2013-10-04 22:01:00,
2013-10-04 17:06:00,77.0,75.5,29.93,North,5,0.0,4.0,95,0.10,,---,0.10,VWS V14.01,2013-10-04 22:06:00,
2013-10-04 17:11:00,76.9,75.4,29.93,North,5,0.0,0.0,95,0.10,,---,0.10,VWS V14.01,2013-10-04 22:11:00,
2013-10-04 17:16:00,77.1,75.6,29.93,North,5,0.0,0.0,95,0.10,,---,0.10,VWS V14.01,2013-10-04 22:16:00,
2013-10-04 17:21:00,77.3,75.8,29.93,North,5,0.0,0.0,95,0.10,,---,0.10,VWS V14.01,2013-10-04 22:21:00,
2013-10-04 17:26:00,77.6,76.4,29.93,North,5,0.0,0.0,96,0.10,,---,0.10,VWS V14.01,2013-10-04 22:26:00,
2013-10-04 17:31:00,78.4,77.2,29.93,North,5,0.0,0.0,96,0.10,,---,0.10,VWS V14.01,2013-10-04 22:31:00,
2013-10-04 17:36:00,78.7,77.5,29.93,North,5,0.0,0.0,96,0.10,,---,0.10,VWS V14.01,2013-10-04 22:36:00,
2013-10-04 17:41:00,79.0,77.8,29.94,North,5,0.0,0.0,96,0.03,,---,0.10,VWS V14.01,2013-10-04 22:41:00,
2013-10-04 17:46:00,79.1,77.9,29.94,North,5,0.0,0.0,96,0.03,,---,0.10,VWS V14.01,2013-10-04 22:46:00,
2013-10-04 17:51:00,79.1,77.6,29.94,East,97,1.0,5.0,95,0.03,,---,0.10,VWS V14.01,2013-10-04 22:51:00,
2013-10-04 17:56:00,79.1,77.6,29.94,NNE,22,0.0,6.0,95,0.03,,---,0.10,VWS V14.01,2013-10-04 22:56:00,
2013-10-04 18:01:00,78.6,76.7,29.94,East,80,2.0,6.0,94,0.03,,---,0.10,VWS V14.01,2013-10-04 23:01:00,
2013-10-04 18:06:00,78.5,76.6,29.94,NNW,333,1.0,6.0,94,0.03,,---,0.10,VWS V14.01,2013-10-04 23:06:00,
2013-10-04 18:11:00,78.2,76.3,29.94,WNW,284,0.0,2.0,94,0.00,,---,0.10,VWS V14.01,2013-10-04 23:11:00,
2013-10-04 18:16:00,77.8,75.9,29.95,West,267,0.0,2.0,94,0.00,,---,0.10,VWS V14.01,2013-10-04 23:16:00,
2013-10-04 18:21:00,77.5,75.6,29.95,West,274,1.0,2.0,94,0.00,,---,0.10,VWS V14.01,2013-10-04 23:21:00,
2013-10-04 18:26:00,77.3,75.4,29.95,NNE,29,1.0,3.0,94,0.00,,---,0.10,VWS V14.01,2013-10-04 23:26:00,
2013-10-04 18:31:00,77.1,74.9,29.94,East,86,1.0,3.0,93,0.00,,---,0.10,VWS V14.01,2013-10-04 23:31:00,
2013-10-04 18:36:00,76.9,75.1,29.94,East,86,0.0,3.0,94,0.00,,---,0.10,VWS V14.01,2013-10-04 23:36:00,
2013-10-04 18:41:00,76.6,74.4,29.95,NE,50,0.0,4.0,93,0.00,,---,0.10,VWS V14.01,2013-10-04 23:41:00,
2013-10-04 18:46:00,76.7,74.8,29.95,SSE,158,0.0,5.0,94,0.00,,---,0.10,VWS V14.01,2013-10-04 23:46:00,
2013-10-04 18:51:00,76.4,74.6,29.95,SE,130,3.0,5.0,94,0.00,,---,0.10,VWS V14.01,2013-10-04 23:51:00,
2013-10-04 18:56:00,76.1,74.2,29.94,East,84,1.0,5.0,94,0.00,,---,0.10,VWS V14.01,2013-10-04 23:56:00,
2013-10-04 19:01:00,75.9,74.1,29.95,East,91,1.0,5.0,94,0.00,,---,0.10,VWS V14.01,2013-10-05 00:01:00,
2013-10-04 19:06:00,75.9,74.1,29.95,ENE,69,0.0,5.0,94,0.00,,---,0.10,VWS V14.01,2013-10-05 00:06:00,
2013-10-04 19:11:00,75.6,73.8,29.95,ENE,69,0.0,0.0,94,0.00,,---,0.10,VWS V14.01,2013-10-05 00:11:00,
2013-10-04 19:16:00,75.5,73.7,29.95,ENE,69,0.0,0.0,94,0.00,,---,0.10,VWS V14.01,2013-10-05 00:16:00,
2013-10-04 19:21:00,75.5,73.7,29.95,ENE,69,0.0,0.0,94,0.00,,---,0.10,VWS V14.01,2013-10-05 00:21:00,
2013-10-04 19:26:00,75.5,73.7,29.95,ENE,69,0.0,0.0,94,0.00,,---,0.10,VWS V14.01,2013-10-05 00:26:00,
2013-10-04 19:31:00,75.4,73.9,29.95,ENE,69,0.0,0.0,95,0.00,,---,0.10,VWS V14.01,2013-10-05 00:31:00,
2013-10-04 19:36:00,75.4,73.9,29.95,ENE,69,0.0,0.0,95,0.00,,---,0.10,VWS V14.01,2013-10-05 00:36:00,
2013-10-04 19:41:00,75.4,73.9,29.95,ENE,69,0.0,0.0,95,0.00,,---,0.10,VWS V14.01,2013-10-05 00:41:00,
2013-10-04 19:46:00,75.1,73.6,29.95,ENE,69,0.0,0.0,95,0.00,,---,0.10,VWS V14.01,2013-10-05 00:46:00,
2013-10-04 19:51:00,75.0,73.5,29.95,ENE,69,0.0,0.0,95,0.00,,---,0.10,VWS V14.01,2013-10-05 00:51:00,
2013-10-04 19:56:00,74.9,73.7,29.95,ENE,69,0.0,0.0,96,0.00,,---,0.10,VWS V14.01,2013-10-05 00:56:00,
2013-10-04 20:01:00,74.9,73.4,29.95,ENE,69,0.0,0.0,95,0.00,,---,0.10,VWS V14.01,2013-10-05 01:01:00,
2013-10-04 20:06:00,74.7,73.2,29.95,North,351,0.0,1.0,95,0.00,,---,0.10,VWS V14.01,2013-10-05 01:06:00,
2013-10-04 20:11:00,74.8,73.3,29.96,North,351,0.0,2.0,95,0.00,,---,0.10,VWS V14.01,2013-10-05 01:11:00,
2013-10-04 20:16:00,74.9,73.7,29.95,East,96,0.0,2.0,96,0.00,,---,0.10,VWS V14.01,2013-10-05 01:16:00,
2013-10-04 20:21:00,75.0,73.8,29.96,East,96,0.0,2.0,96,0.00,,---,0.10,VWS V14.01,2013-10-05 01:21:00,
2013-10-04 20:26:00,75.0,73.8,29.96,East,96,0.0,2.0,96,0.00,,---,0.10,VWS V14.01,2013-10-05 01:26:00,
2013-10-04 20:31:00,74.9,73.7,29.96,East,98,0.0,2.0,96,0.00,,---,0.10,VWS V14.01,2013-10-05 01:31:00,
2013-10-04 20:36:00,74.9,73.7,29.96,East,98,0.0,2.0,96,0.00,,---,0.10,VWS V14.01,2013-10-05 01:36:00,
2013-10-04 20:41:00,74.9,73.4,29.96,East,98,0.0,0.0,95,0.00,,---,0.10,VWS V14.01,2013-10-05 01:41:00,
2013-10-04 20:46:00,74.9,73.7,29.96,ENE,71,0.0,2.0,96,0.00,,---,0.10,VWS V14.01,2013-10-05 01:46:00,
2013-10-04 20:52:00,75.0,73.8,29.97,East,85,0.0,4.0,96,0.00,,---,0.10,VWS V14.01,2013-10-05 01:52:00,
2013-10-04 20:57:00,74.9,73.7,29.97,East,85,0.0,4.0,96,0.00,,---,0.10,VWS V14.01,2013-10-05 01:57:00,
2013-10-04 21:02:00,74.9,73.7,29.97,NE,54,0.0,4.0,96,0.00,,---,0.10,VWS V14.01,2013-10-05 02:02:00,
2013-10-04 21:07:00,74.9,73.4,29.97,East,95,0.0,2.0,95,0.00,,---,0.10,VWS V14.01,2013-10-05 02:07:00,
2013-10-04 21:12:00,74.8,73.3,29.97,East,95,0.0,2.0,95,0.00,,---,0.10,VWS V14.01,2013-10-05 02:12:00,
2013-10-04 21:17:00,74.7,73.2,29.97,ESE,103,0.0,3.0,95,0.00,,---,0.10,VWS V14.01,2013-10-05 02:17:00,
2013-10-04 21:22:00,74.6,73.1,29.97,ESE,103,0.0,3.0,95,0.00,,---,0.10,VWS V14.01,2013-10-05 02:22:00,
2013-10-04 21:27:00,74.6,73.1,29.97,ENE,58,0.0,4.0,95,0.00,,---,0.10,VWS V14.01,2013-10-05 02:27:00,
2013-10-04 21:32:00,74.4,72.9,29.97,ENE,58,0.0,4.0,95,0.00,,---,0.10,VWS V14.01,2013-10-05 02:32:00,
2013-10-04 21:36:00,74.4,72.9,29.98,ENE,58,0.0,4.0,95,0.00,,---,0.10,VWS V14.01,2013-10-05 02:36:00,
2013-10-04 21:42:00,74.4,72.9,29.98,ENE,58,0.0,1.0,95,0.00,,---,0.10,VWS V14.01,2013-10-05 02:42:00,
2013-10-04 21:47:00,74.3,72.8,29.98,ENE,58,0.0,1.0,95,0.00,,---,0.10,VWS V14.01,2013-10-05 02:47:00,
2013-10-04 21:52:00,74.2,72.7,29.98,ENE,58,0.0,1.0,95,0.00,,---,0.10,VWS V14.01,2013-10-05 02:52:00,
2013-10-04 21:57:00,74.2,72.4,29.98,NW,323,0.0,2.0,94,0.00,,---,0.10,VWS V14.01,2013-10-05 02:57:00,
2013-10-04 22:02:00,74.3,72.8,29.98,East,80,0.0,4.0,95,0.00,,---,0.10,VWS V14.01,2013-10-05 03:02:00,
2013-10-04 22:06:00,74.3,72.5,29.98,NE,44,2.0,4.0,94,0.00,,---,0.10,VWS V14.01,2013-10-05 03:06:00,
2013-10-04 22:07:00,74.3,72.5,29.98,NE,44,0.0,2.0,94,0.00,,---,0.10,VWS V14.01,2013-10-05 03:07:00,
2013-10-04 22:12:00,74.3,72.5,29.98,NE,44,0.0,3.0,94,0.00,,---,0.10,VWS V14.01,2013-10-05 03:12:00,
2013-10-04 22:17:00,74.3,72.5,29.98,NE,42,0.0,3.0,94,0.00,,---,0.10,VWS V14.01,2013-10-05 03:17:00,
2013-10-04 22:22:00,74.3,72.5,29.98,South,171,0.0,3.0,94,0.00,,---,0.10,VWS V14.01,2013-10-05 03:22:00,
2013-10-04 22:27:00,74.2,72.4,29.98,SE,140,0.0,3.0,94,0.00,,---,0.10,VWS V14.01,2013-10-05 03:27:00,
2013-10-04 22:32:00,74.3,72.5,29.98,SE,134,0.0,3.0,94,0.00,,---,0.10,VWS V14.01,2013-10-05 03:32:00,
2013-10-04 22:36:00,74.3,72.5,29.98,SE,134,0.0,3.0,94,0.00,,---,0.10,VWS V14.01,2013-10-05 03:36:00,
2013-10-04 22:42:00,74.1,72.3,29.98,East,99,0.0,1.0,94,0.00,,---,0.10,VWS V14.01,2013-10-05 03:42:00,
2013-10-04 22:47:00,74.1,72.3,29.97,East,99,0.0,1.0,94,0.00,,---,0.10,VWS V14.01,2013-10-05 03:47:00,
2013-10-04 22:52:00,74.0,72.2,29.98,NNE,13,0.0,2.0,94,0.00,,---,0.10,VWS V14.01,2013-10-05 03:52:00,
2013-10-04 22:57:00,73.8,72.3,29.98,ESE,109,0.0,3.0,95,0.00,,---,0.10,VWS V14.01,2013-10-05 03:57:00,
2013-10-04 23:02:00,73.7,72.2,29.98,ESE,109,0.0,3.0,95,0.00,,---,0.10,VWS V14.01,2013-10-05 04:02:00,
2013-10-04 23:06:00,73.6,72.1,29.98,ESE,109,0.0,3.0,95,0.00,,---,0.10,VWS V14.01,2013-10-05 04:06:00,
2013-10-04 23:07:00,73.6,72.1,29.98,ESE,109,0.0,0.0,95,0.00,,---,0.10,VWS V14.01,2013-10-05 04:07:00,
2013-10-04 23:12:00,73.6,72.1,29.97,ESE,109,0.0,0.0,95,0.00,,---,0.10,VWS V14.01,2013-10-05 04:12:00,
2013-10-04 23:17:00,73.4,71.9,29.97,ESE,109,0.0,0.0,95,0.00,,---,0.10,VWS V14.01,2013-10-05 04:17:00,
2013-10-04 23:22:00,73.3,71.8,29.97,ESE,109,0.0,0.0,95,0.00,,---,0.10,VWS V14.01,2013-10-05 04:22:00,
2013-10-04 23:27:00,73.0,71.8,29.97,ESE,109,0.0,0.0,96,0.00,,---,0.10,VWS V14.01,2013-10-05 04:27:00,
2013-10-04 23:32:00,73.1,71.9,29.97,ESE,109,0.0,0.0,96,0.00,,---,0.10,VWS V14.01,2013-10-05 04:32:00,
2013-10-04 23:36:00,73.0,71.8,29.97,ESE,109,0.0,0.0,96,0.00,,---,0.10,VWS V14.01,2013-10-05 04:36:00,
2013-10-04 23:37:00,73.0,71.8,29.97,ESE,109,0.0,0.0,96,0.00,,---,0.10,VWS V14.01,2013-10-05 04:37:00,
2013-10-04 23:42:00,73.1,71.9,29.97,ESE,109,0.0,0.0,96,0.00,,---,0.10,VWS V14.01,2013-10-05 04:42:00,
2013-10-04 23:47:00,73.1,71.9,29.97,ESE,109,0.0,0.0,96,0.00,,---,0.10,VWS V14.01,2013-10-05 04:47:00,
2013-10-04 23:52:00,72.9,71.7,29.96,ESE,109,0.0,0.0,96,0.00,,---,0.10,VWS V14.01,2013-10-05 04:52:00,
2013-10-04 23:57:00,72.8,71.6,29.96,ESE,109,0.0,0.0,96,0.00,,---,0.10,VWS V14.01,2013-10-05 04:57:00,